Time;durP1;ratioP1;P1;durP2;ratioP2;P2;SDS_P1;SDS_P2;PMS_P1;PMS_P2;Temp;Humidity;BMP_temperature;BMP_pressure;BME280_temperature;BME280_humidity;BME280_pressure;Samples;Min_cycle;Max_cycle;Signal;HPM_P1;HPM_P2
2023/11/17 00:01:43;;;;;;;8.27;5.50;;;;;;;-3.68;100.00;102031.75;5013166;28;20065;-66
2023/11/17 00:04:09;;;;;;;8.63;5.37;;;;;;;-3.84;100.00;102007.03;5012793;28;20440;-69
2023/11/17 00:06:35;;;;;;;8.60;5.23;;;;;;;-3.75;100.00;102028.47;5013146;28;20149;-68
2023/11/17 00:09:01;;;;;;;7.33;5.17;;;;;;;-3.77;100.00;102026.78;5012844;28;20133;-67
2023/11/17 00:11:27;;;;;;;8.83;5.57;;;;;;;-3.77;100.00;102037.19;5012899;28;20069;-68
2023/11/17 00:13:53;;;;;;;8.25;5.65;;;;;;;-3.78;100.00;102056.31;5012781;28;20128;-66
2023/11/17 00:16:19;;;;;;;10.35;5.82;;;;;;;-3.89;100.00;102046.19;5012842;28;20045;-67
2023/11/17 00:18:45;;;;;;;9.80;5.80;;;;;;;-3.94;100.00;102036.78;5011449;28;20042;-67
2023/11/17 00:21:13;;;;;;;6.03;5.30;;;;;;;-3.89;100.00;102054.00;5012431;28;20128;-67
2023/11/17 00:23:38;;;;;;;11.50;6.07;;;;;;;-3.96;100.00;102041.19;5011295;28;20072;-67
2023/11/17 00:26:05;;;;;;;8.43;6.03;;;;;;;-3.94;100.00;102045.47;5012425;28;20492;-67
2023/11/17 00:28:40;;;;;;;6.63;4.93;;;;;;;-3.98;100.00;102029.97;5012763;28;20038;-67
2023/11/17 00:31:07;;;;;;;8.05;4.53;;;;;;;-3.91;100.00;102047.13;5012539;28;20044;-67
2023/11/17 00:33:32;;;;;;;9.65;4.78;;;;;;;-3.87;100.00;102057.41;5010890;28;20037;-67
2023/11/17 00:35:58;;;;;;;8.37;5.53;;;;;;;-3.99;100.00;102039.50;5012164;28;20042;-66
2023/11/17 00:38:24;;;;;;;8.77;5.10;;;;;;;-3.96;100.00;102049.00;5012496;28;20123;-66
2023/11/17 00:40:49;;;;;;;6.47;4.40;;;;;;;-4.03;100.00;102050.91;5012091;28;20038;-66
2023/11/17 00:43:15;;;;;;;8.83;5.60;;;;;;;-3.97;100.00;102049.88;5011020;28;20030;-69
2023/11/17 00:45:40;;;;;;;6.93;5.43;;;;;;;-3.94;100.00;102065.41;5011726;28;20038;-67
2023/11/17 00:48:06;;;;;;;9.70;5.40;;;;;;;-4.21;100.00;102028.78;5011719;28;20099;-69
2023/11/17 00:50:32;;;;;;;10.30;5.63;;;;;;;-3.98;100.00;102074.19;5011738;28;20072;-68
2023/11/17 00:53:05;;;;;;;17.83;7.80;;;;;;;-3.99;100.00;102075.09;5012073;28;20509;-66
2023/11/17 00:55:34;;;;;;;22.90;10.23;;;;;;;-4.25;100.00;102034.94;5011982;28;20084;-68
2023/11/17 00:58:00;;;;;;;19.77;9.38;;;;;;;-4.06;100.00;102077.81;5012062;28;20033;-68
2023/11/17 01:00:27;;;;;;;9.83;5.83;;;;;;;-4.32;100.00;102038.59;5012102;28;20141;-65
2023/11/17 01:02:53;;;;;;;14.38;5.82;;;;;;;-4.24;100.00;102057.47;5011609;28;20053;-66
2023/11/17 01:05:19;;;;;;;16.30;6.63;;;;;;;-4.13;100.00;102078.88;5010871;28;20153;-67
2023/11/17 01:07:44;;;;;;;8.17;5.00;;;;;;;-4.20;100.00;102063.44;5010752;28;20038;-67
2023/11/17 01:10:10;;;;;;;6.47;4.90;;;;;;;-4.09;100.00;102083.09;5012120;28;20120;-66
2023/11/17 01:12:35;;;;;;;7.70;5.40;;;;;;;-4.10;100.00;102080.53;5010868;28;20090;-66
2023/11/17 01:15:07;;;;;;;9.10;5.27;;;;;;;-4.16;100.00;102071.13;5012874;28;20092;-67
2023/11/17 01:17:33;;;;;;;11.77;4.95;;;;;;;-4.17;100.00;102078.97;5012013;28;20400;-67
2023/11/17 01:19:59;;;;;;;8.90;5.28;;;;;;;-4.18;100.00;102072.06;5012601;28;20080;-67
2023/11/17 01:22:24;;;;;;;7.93;6.03;;;;;;;-4.36;100.00;102057.75;5012264;28;20081;-67
2023/11/17 01:24:52;;;;;;;9.32;6.07;;;;;;;-4.34;100.00;102060.31;5011974;28;20070;-67
2023/11/17 01:27:20;;;;;;;8.50;4.88;;;;;;;-4.21;100.00;102095.56;5011902;28;20576;-68
2023/11/17 01:29:45;;;;;;;9.40;7.03;;;;;;;-4.26;100.00;102087.88;5012232;28;20169;-67
2023/11/17 01:32:11;;;;;;;10.23;4.57;;;;;;;-4.31;100.00;102092.31;5010496;28;20053;-66
2023/11/17 01:34:37;;;;;;;9.13;4.93;;;;;;;-4.80;100.00;102005.03;5012054;28;20037;-68
2023/11/17 01:37:04;;;;;;;9.27;5.17;;;;;;;-4.24;100.00;102087.84;5011842;28;20496;-67
2023/11/17 01:39:29;;;;;;;5.57;4.38;;;;;;;-4.34;100.00;102055.09;5011805;28;20037;-66
2023/11/17 01:41:55;;;;;;;6.83;4.37;;;;;;;-4.07;100.00;102083.91;4994107;28;20046;-67
2023/11/17 01:44:21;;;;;;;11.00;5.67;;;;;;;-3.83;100.00;102095.47;5011742;28;20504;-66
2023/11/17 01:46:48;;;;;;;6.57;4.43;;;;;;;-3.77;100.00;102090.09;5011411;28;20042;-69
2023/11/17 01:49:15;;;;;;;5.88;4.68;;;;;;;-3.68;100.00;102083.84;5011849;28;20048;-66
2023/11/17 01:51:41;;;;;;;9.10;4.85;;;;;;;-3.70;100.00;102062.19;5010139;28;20136;-67
2023/11/17 01:54:07;;;;;;;7.30;4.93;;;;;;;-3.42;100.00;102090.97;5010243;28;20120;-66
2023/11/17 01:56:36;;;;;;;6.20;4.37;;;;;;;-3.33;100.00;102092.47;5011522;28;20030;-66
2023/11/17 01:59:02;;;;;;;6.05;4.25;;;;;;;-3.25;100.00;102100.91;5010495;28;20034;-67
2023/11/17 02:01:27;;;;;;;6.17;4.80;;;;;;;-3.29;100.00;102094.94;5011642;28;20049;-66
2023/11/17 02:03:55;;;;;;;7.57;5.10;;;;;;;-3.19;100.00;102103.34;5012335;28;20038;-67
2023/11/17 02:06:44;;;;;;;7.20;3.90;;;;;;;-3.31;100.00;102088.91;5013192;28;20041;-67
2023/11/17 02:09:25;;;;;;;5.35;3.25;;;;;;;-3.23;100.00;102104.34;5014412;28;20569;-67
2023/11/17 02:12:17;;;;;;;8.65;4.38;;;;;;;-4.21;100.00;101963.75;5012679;28;20046;-68
2023/11/17 02:14:48;;;;;;;5.50;3.90;;;;;;;-3.62;100.00;102051.56;5012061;28;20096;-67
2023/11/17 02:17:16;;;;;;;6.43;3.85;;;;;;;-3.31;100.00;102101.94;5016290;28;20038;-67
2023/11/17 02:19:43;;;;;;;4.75;3.60;;;;;;;-3.19;100.00;102112.00;5014452;28;20042;-68
2023/11/17 02:22:21;;;;;;;6.30;4.18;;;;;;;-3.84;100.00;101994.00;5015450;28;20041;-70
2023/11/17 02:25:23;;;;;;;9.52;4.15;;;;;;;-3.14;100.00;102096.28;5013792;28;20081;-68
2023/11/17 02:28:07;;;;;;;5.80;3.85;;;;;;;-3.35;100.00;102042.16;5014285;28;20038;-67
2023/11/17 02:30:34;;;;;;;5.28;3.45;;;;;;;-3.08;100.00;102090.03;5014992;28;20131;-67
2023/11/17 02:33:00;;;;;;;5.50;3.85;;;;;;;-2.88;100.00;102114.66;5014496;28;20061;-68
2023/11/17 02:35:29;;;;;;;6.70;4.05;;;;;;;-2.95;100.00;102096.59;5016527;28;20080;-67
2023/11/17 02:37:59;;;;;;;4.82;3.78;;;;;;;-2.83;100.00;102115.38;5014420;28;20493;-67
2023/11/17 02:40:25;;;;;;;4.82;3.80;;;;;;;-2.90;100.00;102110.34;5015581;28;20048;-66
2023/11/17 02:42:56;;;;;;;5.67;3.60;;;;;;;-3.01;100.00;102113.28;5015191;28;20041;-67
2023/11/17 02:45:25;;;;;;;4.53;3.53;;;;;;;-3.09;100.00;102089.19;5015334;28;20029;-68
2023/11/17 02:47:58;;;;;;;5.32;3.88;;;;;;;-3.34;100.00;102051.69;5014174;28;20034;-67
2023/11/17 02:50:31;;;;;;;3.95;3.55;;;;;;;-3.04;100.00;102129.00;5015396;28;20046;-67
2023/11/17 02:53:17;;;;;;;6.43;4.60;;;;;;;-3.09;100.00;102125.66;5014558;28;20404;-67
2023/11/17 02:55:44;;;;;;;6.55;4.03;;;;;;;-3.03;100.00;102125.50;5013507;28;20409;-66
2023/11/17 02:58:12;;;;;;;6.97;3.33;;;;;;;-2.99;100.00;102121.03;5014901;28;20049;-67
2023/11/17 03:00:38;;;;;;;6.93;3.63;;;;;;;-3.09;100.00;102117.84;5014540;28;20136;-68
2023/11/17 03:03:04;;;;;;;4.85;3.67;;;;;;;-3.53;100.00;102061.72;4996898;28;20121;-66
2023/11/17 03:05:30;;;;;;;6.80;3.30;;;;;;;-3.22;100.00;102121.66;5013571;28;20125;-67
2023/11/17 03:07:56;;;;;;;5.40;3.33;;;;;;;-3.33;100.00;102114.16;5014379;28;20424;-67
2023/11/17 03:10:22;;;;;;;4.63;2.90;;;;;;;-3.40;100.00;102102.19;5014476;28;20029;-67
2023/11/17 03:12:50;;;;;;;5.50;3.78;;;;;;;-3.32;100.00;102126.28;5014783;28;20497;-67
2023/11/17 03:15:16;;;;;;;3.85;3.45;;;;;;;-3.35;100.00;102117.69;5014374;28;20072;-68
2023/11/17 03:17:41;;;;;;;6.03;3.25;;;;;;;-3.41;100.00;102107.44;5013353;28;20029;-65
2023/11/17 03:20:14;;;;;;;6.37;3.13;;;;;;;-3.26;100.00;102123.50;5016164;28;20044;-65
2023/11/17 03:22:44;;;;;;;6.03;3.45;;;;;;;-3.34;100.00;102103.78;5020080;28;20041;-67
2023/11/17 03:25:15;;;;;;;4.75;2.95;;;;;;;-3.26;100.00;102107.03;5018494;28;20120;-67
2023/11/17 03:27:50;;;;;;;3.35;3.00;;;;;;;-3.18;100.00;102126.78;5022270;28;20057;-66
2023/11/17 03:30:19;;;;;;;5.00;3.92;;;;;;;-3.27;100.00;102100.09;5021197;28;20068;-67
2023/11/17 03:32:52;;;;;;;5.68;3.03;;;;;;;-3.40;100.00;102078.75;5018971;28;20512;-69
2023/11/17 03:35:20;;;;;;;4.78;3.40;;;;;;;-3.19;100.00;102132.00;5021343;28;20045;-68
2023/11/17 03:37:50;;;;;;;3.55;3.20;;;;;;;-3.37;100.00;102107.31;5024144;28;20041;-66
2023/11/17 03:40:17;;;;;;;4.43;3.40;;;;;;;-3.28;100.00;102119.25;5026857;28;20041;-67
2023/11/17 03:42:44;;;;;;;5.10;3.28;;;;;;;-3.38;100.00;102102.16;5027397;28;20505;-66
2023/11/17 03:45:15;;;;;;;4.53;3.87;;;;;;;-3.16;100.00;102124.13;5027614;28;20065;-67
2023/11/17 03:47:45;;;;;;;6.78;4.38;;;;;;;-3.11;100.00;102135.28;5025917;28;20030;-66
2023/11/17 03:50:13;;;;;;;6.72;4.15;;;;;;;-3.08;100.00;102148.22;5026812;28;20046;-66
2023/11/17 03:52:42;;;;;;;4.65;4.07;;;;;;;-3.12;100.00;102147.47;5002358;28;20104;-66
2023/11/17 03:55:07;;;;;;;5.97;3.55;;;;;;;-3.04;100.00;102159.41;5012328;28;20065;-68
2023/11/17 03:57:36;;;;;;;6.73;3.97;;;;;;;-3.06;100.00;102145.56;5012586;28;20061;-67
2023/11/17 04:00:04;;;;;;;;;;;;;;;-2.88;100.00;102156.38;5012926;28;20158;-66
2023/11/17 04:02:30;;;;;;;5.22;3.35;;;;;;;-2.84;100.00;102163.19;5013676;28;19964;-67
2023/11/17 04:04:56;;;;;;;5.90;3.83;;;;;;;-3.09;100.00;102114.41;5012438;28;20046;-67
2023/11/17 04:07:23;;;;;;;4.60;3.40;;;;;;;-2.93;100.00;102142.56;5013743;28;20054;-67
2023/11/17 04:09:49;;;;;;;4.72;3.05;;;;;;;-2.79;100.00;102170.03;5013846;28;20037;-67
2023/11/17 04:12:15;;;;;;;4.28;3.25;;;;;;;-2.75;100.00;102167.28;5014063;28;20536;-65
2023/11/17 04:14:42;;;;;;;5.75;4.03;;;;;;;-2.76;100.00;102165.59;5014167;28;20141;-67
2023/11/17 04:17:11;;;;;;;5.30;3.35;;;;;;;-2.75;100.00;102179.47;5021263;28;20060;-67
2023/11/17 04:19:37;;;;;;;;;;;;;;;-2.77;100.00;102168.22;5023922;28;20394;-67
2023/11/17 04:22:04;;;;;;;4.33;3.27;;;;;;;-2.81;100.00;102165.72;5021777;28;19924;-67
2023/11/17 04:24:30;;;;;;;5.70;4.25;;;;;;;-2.94;100.00;102145.22;5019439;28;20128;-66
2023/11/17 04:26:56;;;;;;;4.63;3.10;;;;;;;-2.91;100.00;102138.16;5014442;28;20102;-67
2023/11/17 04:29:25;;;;;;;4.63;3.50;;;;;;;-2.70;100.00;102164.53;5015340;28;20068;-66
2023/11/17 04:31:56;;;;;;;5.45;3.78;;;;;;;-2.77;100.00;102144.75;5026445;28;20041;-67
2023/11/17 04:34:22;;;;;;;4.68;3.58;;;;;;;-2.65;100.00;102167.88;5019902;28;20038;-68
2023/11/17 04:36:50;;;;;;;22.60;21.05;;;;;;;-2.67;100.00;102160.09;5022094;28;20057;-70
2023/11/17 04:39:23;;;;;;;8.00;4.95;;;;;;;-2.60;100.00;102177.31;5023093;28;20038;-68
2023/11/17 04:41:51;;;;;;;9.93;3.30;;;;;;;-2.77;100.00;102142.16;5023466;28;20160;-68
2023/11/17 04:44:17;;;;;;;4.72;3.30;;;;;;;-2.70;100.00;102164.53;5020361;28;20810;-68
2023/11/17 04:46:43;;;;;;;3.60;3.10;;;;;;;-2.83;100.00;102144.06;5018882;28;20057;-66
2023/11/17 04:49:09;;;;;;;4.17;2.97;;;;;;;-2.78;100.00;102163.91;5019020;28;20060;-71
2023/11/17 04:51:35;;;;;;;3.90;2.83;;;;;;;-2.83;100.00;102153.63;5019220;28;20104;-68
2023/11/17 04:54:01;;;;;;;9.60;4.07;;;;;;;-2.75;100.00;102161.22;5020824;28;20038;-68
2023/11/17 04:56:28;;;;;;;3.75;3.25;;;;;;;-2.74;100.00;102182.03;5023197;28;20068;-69
2023/11/17 04:58:56;;;;;;;6.05;3.90;;;;;;;-2.81;100.00;102168.31;5008329;28;20048;-75
2023/11/17 05:01:22;;;;;;;3.88;2.95;;;;;;;-2.80;100.00;102166.56;5013897;28;20038;-68
2023/11/17 05:03:48;;;;;;;7.90;3.50;;;;;;;-2.86;100.00;102153.72;5011853;28;20034;-71
2023/11/17 05:06:22;;;;;;;4.30;3.57;;;;;;;-2.86;100.00;102162.38;5011797;28;20103;-68
2023/11/17 05:08:48;;;;;;;5.75;4.03;;;;;;;-3.04;100.00;102134.22;5011666;28;20370;-69
2023/11/17 05:11:13;;;;;;;11.27;5.57;;;;;;;-2.87;100.00;102163.28;5011762;28;20084;-69
2023/11/17 05:13:39;;;;;;;4.87;3.50;;;;;;;-2.90;100.00;102163.34;5013791;28;20034;-67
2023/11/17 05:16:05;;;;;;;4.67;2.67;;;;;;;-3.07;100.00;102139.50;5012538;28;20421;-69
2023/11/17 05:18:31;;;;;;;8.95;5.25;;;;;;;-3.29;100.00;102118.38;5012122;28;20075;-68
2023/11/17 05:20:57;;;;;;;5.53;3.07;;;;;;;-3.15;100.00;102144.94;5012121;28;20097;-69
2023/11/17 05:23:22;;;;;;;8.40;4.20;;;;;;;-3.14;100.00;102164.03;5012078;28;20050;-66
2023/11/17 05:25:49;;;;;;;10.67;3.63;;;;;;;-3.38;100.00;102142.09;5010443;28;20386;-68
2023/11/17 05:28:15;;;;;;;10.10;4.10;;;;;;;-3.55;100.00;102149.47;5012465;28;20076;-68
2023/11/17 05:30:41;;;;;;;11.80;3.97;;;;;;;-3.73;100.00;102145.59;5012505;28;20081;-68
2023/11/17 05:33:06;;;;;;;5.97;3.50;;;;;;;-4.01;100.00;102127.19;5012525;28;20358;-70
2023/11/17 05:35:32;;;;;;;6.57;3.80;;;;;;;-3.82;100.00;102174.41;5011541;28;20065;-67
2023/11/17 05:37:58;;;;;;;5.43;3.20;;;;;;;-3.95;100.00;102167.81;5011904;28;20029;-69
2023/11/17 05:40:24;;;;;;;9.40;3.60;;;;;;;-3.91;100.00;102180.72;5010777;28;20030;-68
2023/11/17 05:42:49;;;;;;;10.80;4.17;;;;;;;-4.03;100.00;102161.94;4994471;28;20029;-67
2023/11/17 05:45:15;;;;;;;20.30;9.17;;;;;;;-3.98;100.00;102168.75;5011713;28;20081;-68
2023/11/17 05:47:41;;;;;;;7.47;4.00;;;;;;;-3.93;100.00;102185.09;5012441;28;20042;-68
2023/11/17 05:50:11;;;;;;;5.73;3.67;;;;;;;-4.03;100.00;102175.81;4996602;28;20067;-67
2023/11/17 05:52:41;;;;;;;6.47;3.72;;;;;;;-3.94;100.00;102185.13;5014570;28;20072;-68
2023/11/17 05:55:07;;;;;;;5.75;3.55;;;;;;;-3.93;100.00;102189.44;5014947;28;20578;-68
2023/11/17 05:57:33;;;;;;;5.70;3.75;;;;;;;-4.15;100.00;102156.09;5014835;28;20033;-68
2023/11/17 05:59:58;;;;;;;10.63;4.43;;;;;;;-4.13;100.00;102164.72;5018753;28;20046;-69
2023/11/17 06:02:27;;;;;;;9.60;4.60;;;;;;;-4.24;100.00;102145.91;5027877;28;20078;-69
2023/11/17 06:04:53;;;;;;;9.13;4.45;;;;;;;-3.99;100.00;102192.19;5021890;28;20053;-70
2023/11/17 06:07:19;;;;;;;5.83;3.77;;;;;;;-3.99;100.00;102194.78;5023591;28;20065;-68
2023/11/17 06:09:45;;;;;;;7.38;4.03;;;;;;;-4.00;100.00;102188.75;5026320;28;20041;-69
2023/11/17 06:12:12;;;;;;;10.30;5.90;;;;;;;-4.83;100.00;102067.47;5026735;28;20029;-72
2023/11/17 06:14:41;;;;;;;7.03;3.80;;;;;;;-4.14;100.00;102178.63;5024896;28;20113;-74
2023/11/17 06:17:11;;;;;;;8.88;3.67;;;;;;;-4.09;100.00;102181.13;5023535;28;20419;-69
2023/11/17 06:19:40;;;;;;;9.80;4.22;;;;;;;-4.17;100.00;102172.63;5027904;28;20048;-68
2023/11/17 06:22:08;;;;;;;5.40;4.15;;;;;;;-4.00;100.00;102211.31;5019946;28;20041;-69
2023/11/17 06:24:34;;;;;;;11.65;3.65;;;;;;;-4.06;100.00;102207.06;5026680;28;20033;-69
2023/11/17 06:27:04;;;;;;;7.13;4.75;;;;;;;-3.97;100.00;102226.84;5022568;28;20100;-70
2023/11/17 06:29:30;;;;;;;8.40;5.85;;;;;;;-3.95;100.00;102230.25;5023288;28;20409;-69
2023/11/17 06:31:56;;;;;;;6.87;5.10;;;;;;;-3.98;100.00;102222.53;5028453;28;20041;-68
2023/11/17 06:34:22;;;;;;;6.07;3.72;;;;;;;-4.04;100.00;102217.47;5023378;28;20040;-70
2023/11/17 06:36:50;;;;;;;6.80;4.33;;;;;;;-3.91;100.00;102237.09;5004637;28;20034;-71
2023/11/17 06:39:29;;;;;;;7.22;4.15;;;;;;;-4.30;100.00;102161.66;5033737;28;20613;-69
2023/11/17 06:41:54;;;;;;;7.40;4.38;;;;;;;-3.78;100.00;102218.56;5032677;28;20449;-69
2023/11/17 06:44:22;;;;;;;9.70;4.90;;;;;;;-3.69;100.00;102212.31;5033851;28;20044;-71
2023/11/17 06:46:49;;;;;;;8.10;4.03;;;;;;;-3.45;100.00;102229.09;5033957;28;20048;-68
2023/11/17 06:49:19;;;;;;;8.35;4.60;;;;;;;-3.44;100.00;102216.03;5034035;28;20413;-69
2023/11/17 06:51:48;;;;;;;6.50;3.72;;;;;;;-3.37;100.00;102215.88;5033976;28;20064;-69
2023/11/17 06:54:15;;;;;;;8.55;4.22;;;;;;;-3.16;100.00;102236.19;5032966;28;20041;-74
2023/11/17 06:56:46;;;;;;;8.48;4.82;;;;;;;-3.12;100.00;102230.84;5034976;28;20128;-71
2023/11/17 06:59:14;;;;;;;11.38;6.18;;;;;;;-3.12;100.00;102209.16;5033970;28;20096;-68
2023/11/17 07:01:41;;;;;;;5.20;3.85;;;;;;;-2.89;100.00;102243.28;5033063;28;20504;-69
2023/11/17 07:04:07;;;;;;;5.90;4.32;;;;;;;-3.05;100.00;102208.09;5033684;28;20044;-68
2023/11/17 07:06:36;;;;;;;8.82;5.10;;;;;;;-3.28;100.00;102180.00;5034071;28;20029;-71
2023/11/17 07:09:03;;;;;;;9.75;6.00;;;;;;;-2.92;100.00;102232.91;5032852;28;20041;-68
2023/11/17 07:11:31;;;;;;;7.93;4.70;;;;;;;-2.86;100.00;102251.03;5034282;28;20045;-67
2023/11/17 07:14:01;;;;;;;6.63;4.20;;;;;;;-2.91;100.00;102250.25;5033470;28;20049;-67
2023/11/17 07:16:28;;;;;;;6.00;4.35;;;;;;;-2.92;100.00;102252.91;5033981;28;20128;-69
2023/11/17 07:18:56;;;;;;;9.18;4.60;;;;;;;-2.86;100.00;102258.84;5033605;28;20060;-72
2023/11/17 07:21:23;;;;;;;5.88;3.75;;;;;;;-2.74;100.00;102262.00;5033415;28;20128;-68
2023/11/17 07:23:50;;;;;;;6.25;3.60;;;;;;;-2.79;100.00;102243.03;5032043;28;20041;-68
2023/11/17 07:26:20;;;;;;;5.95;4.50;;;;;;;-2.85;100.00;102226.66;5033258;28;20465;-67
2023/11/17 07:28:50;;;;;;;7.20;4.10;;;;;;;-2.73;100.00;102233.28;5033305;28;20044;-68
2023/11/17 07:31:18;;;;;;;5.60;3.90;;;;;;;-2.73;100.00;102232.44;5033354;28;20041;-68
2023/11/17 07:33:44;;;;;;;6.47;3.58;;;;;;;-2.62;100.00;102261.66;5033337;28;20045;-66
2023/11/17 07:36:15;;;;;;;7.35;4.38;;;;;;;-2.73;100.00;102253.28;5024419;28;20604;-67
2023/11/17 07:38:42;;;;;;;5.10;3.97;;;;;;;-2.73;100.00;102268.94;5024851;28;20041;-69
2023/11/17 07:41:08;;;;;;;5.97;4.30;;;;;;;-2.74;100.00;102275.06;5008806;28;20045;-68
2023/11/17 07:43:36;;;;;;;5.83;3.40;;;;;;;-2.76;100.00;102276.84;5032971;28;20036;-68
2023/11/17 07:46:02;;;;;;;5.88;3.80;;;;;;;-2.82;100.00;102273.50;5032902;28;20404;-67
2023/11/17 07:48:31;;;;;;;5.55;3.80;;;;;;;-3.05;100.00;102247.19;5032739;28;20040;-68
2023/11/17 07:50:58;;;;;;;4.50;3.67;;;;;;;-2.92;100.00;102274.63;5032616;28;20473;-66
2023/11/17 07:53:24;;;;;;;7.03;4.35;;;;;;;-2.98;100.00;102266.13;5032414;28;20037;-65
2023/11/17 07:55:52;;;;;;;9.97;4.10;;;;;;;-3.07;100.00;102254.19;5031417;28;20072;-68
2023/11/17 07:58:20;;;;;;;8.18;5.57;;;;;;;-3.17;100.00;102248.34;5033026;28;20354;-67
2023/11/17 08:00:52;;;;;;;7.03;4.40;;;;;;;-3.00;100.00;102280.94;5031394;28;20041;-67
2023/11/17 08:03:19;;;;;;;7.32;4.78;;;;;;;-3.48;100.00;102216.97;5031856;28;20272;-66
2023/11/17 08:05:44;;;;;;;4.82;3.78;;;;;;;-3.18;100.00;102274.44;5032302;28;20146;-67
2023/11/17 08:08:10;;;;;;;7.97;3.80;;;;;;;-3.09;100.00;102291.59;5032513;28;20644;-67
2023/11/17 08:10:36;;;;;;;6.28;3.78;;;;;;;-3.07;100.00;102293.28;5031423;28;20033;-66
2023/11/17 08:13:03;;;;;;;7.83;4.60;;;;;;;-3.13;100.00;102285.63;5032394;28;20120;-66
2023/11/17 08:15:31;;;;;;;6.05;4.38;;;;;;;-3.12;100.00;102292.53;5031431;28;20037;-66
2023/11/17 08:17:57;;;;;;;7.07;4.57;;;;;;;-3.14;100.00;102294.34;5032377;28;20041;-66
2023/11/17 08:20:23;;;;;;;6.63;4.10;;;;;;;-3.16;100.00;102289.16;5032032;28;20068;-66
2023/11/17 08:22:48;;;;;;;8.10;4.97;;;;;;;-3.13;100.00;102272.59;5032220;28;20488;-66
2023/11/17 08:25:16;;;;;;;7.87;4.90;;;;;;;-3.11;100.00;102268.19;5032003;28;20493;-67
2023/11/17 08:27:42;;;;;;;11.77;5.18;;;;;;;-2.96;100.00;102282.56;5030441;28;20057;-68
2023/11/17 08:30:10;;;;;;;;;;;;;;;-2.87;100.00;102284.97;5031492;28;20049;-66
2023/11/17 08:32:39;;;;;;;14.67;6.80;;;;;;;-3.16;100.00;102249.22;5032024;28;20012;-67
2023/11/17 08:35:07;;;;;;;11.98;6.63;;;;;;;-3.12;100.00;102256.06;5030405;28;20029;-69
2023/11/17 08:37:33;;;;;;;13.52;6.93;;;;;;;-3.27;100.00;102248.59;5032168;28;20139;-68
2023/11/17 08:40:00;;;;;;;14.00;6.67;;;;;;;-2.93;100.00;102283.34;5030423;28;20063;-68
2023/11/17 08:42:26;;;;;;;15.40;7.65;;;;;;;-3.06;100.00;102253.28;5029683;28;20146;-68
2023/11/17 08:44:51;;;;;;;11.17;7.27;;;;;;;-2.80;100.00;102299.53;5030042;28;20080;-70
2023/11/17 08:47:17;;;;;;;7.77;5.70;;;;;;;-2.75;100.00;102292.44;5013657;28;20048;-69
2023/11/17 08:49:42;;;;;;;13.60;6.50;;;;;;;-2.63;100.00;102286.91;5031678;28;20491;-69
2023/11/17 08:52:08;;;;;;;8.63;6.63;;;;;;;-2.50;100.00;102297.88;5031765;28;20042;-66
2023/11/17 08:54:34;;;;;;;11.57;6.67;;;;;;;-2.48;100.00;102305.66;5031624;28;20118;-68
2023/11/17 08:57:00;;;;;;;11.38;6.80;;;;;;;-2.48;100.00;102295.22;5032020;28;20041;-68
2023/11/17 08:59:26;;;;;;;12.03;7.27;;;;;;;-2.45;100.00;102289.91;5031680;28;20033;-67
2023/11/17 09:01:52;;;;;;;13.37;7.00;;;;;;;-2.49;100.00;102281.31;5031726;28;20738;-71
2023/11/17 09:04:18;;;;;;;13.45;7.10;;;;;;;-2.54;100.00;102280.59;5031226;28;20054;-68
2023/11/17 09:06:44;;;;;;;13.43;8.23;;;;;;;-2.49;100.00;102304.81;5030392;28;20477;-66
2023/11/17 09:09:13;;;;;;;14.47;8.00;;;;;;;-2.68;100.00;102293.13;5031354;28;20059;-67
2023/11/17 09:11:41;;;;;;;12.18;7.78;;;;;;;-2.73;100.00;102305.44;5030104;28;20091;-70
2023/11/17 09:14:06;;;;;;;12.77;8.85;;;;;;;-2.85;100.00;102297.06;5031503;28;20558;-67
2023/11/17 09:16:34;;;;;;;17.43;9.93;;;;;;;-2.96;100.00;102280.81;5030962;28;20088;-66
2023/11/17 09:19:01;;;;;;;14.13;9.50;;;;;;;-2.85;100.00;102294.44;5029573;28;20042;-69
2023/11/17 09:21:31;;;;;;;15.52;9.75;;;;;;;-2.75;100.00;102299.41;5031223;28;20416;-69
2023/11/17 09:23:56;;;;;;;13.35;8.68;;;;;;;-2.73;100.00;102308.06;5032581;28;20075;-68
2023/11/17 09:26:22;;;;;;;17.87;9.83;;;;;;;-2.79;100.00;102296.03;5038528;28;20473;-69
2023/11/17 09:28:49;;;;;;;15.87;11.07;;;;;;;-2.69;100.00;102312.28;5037790;28;20069;-70
2023/11/17 09:31:14;;;;;;;20.13;10.27;;;;;;;-2.87;100.00;102277.13;5037718;28;20080;-68
2023/11/17 09:33:40;;;;;;;22.27;11.97;;;;;;;-2.73;100.00;102310.66;5037854;28;20069;-69
2023/11/17 09:36:06;;;;;;;16.63;10.97;;;;;;;-2.80;100.00;102289.13;5038058;28;20041;-68
2023/11/17 09:38:33;;;;;;;20.08;12.25;;;;;;;-2.67;100.00;102306.13;5037885;28;20033;-67
2023/11/17 09:40:59;;;;;;;23.88;13.13;;;;;;;-2.74;100.00;102301.13;5020120;28;20045;-66
2023/11/17 09:43:29;;;;;;;20.67;13.83;;;;;;;-2.88;100.00;102288.47;5037710;28;20412;-67
2023/11/17 09:45:59;;;;;;;23.38;14.18;;;;;;;-2.87;100.00;102290.19;5036497;28;20663;-69
2023/11/17 09:48:28;;;;;;;25.20;15.95;;;;;;;-2.76;100.00;102302.91;5036973;28;20056;-69
2023/11/17 09:50:56;;;;;;;30.77;16.88;;;;;;;-2.77;100.00;102314.25;5036706;28;20029;-70
2023/11/17 09:53:23;;;;;;;23.77;16.60;;;;;;;-2.76;100.00;102305.53;5037743;28;20480;-68
2023/11/17 09:55:52;;;;;;;29.02;16.92;;;;;;;-2.82;100.00;102302.19;5037737;28;20124;-70
2023/11/17 09:58:18;;;;;;;;;;;;;;;-2.63;100.00;102312.13;5038165;28;20038;-70
2023/11/17 10:00:46;;;;;;;30.67;20.25;;;;;;;-2.70;100.00;102290.56;5036943;28;19917;-68
2023/11/17 10:03:15;;;;;;;35.17;21.67;;;;;;;-2.54;100.00;102298.84;5038067;28;20129;-67
2023/11/17 10:05:42;;;;;;;31.75;20.48;;;;;;;-2.39;100.00;102310.63;5037471;28;20037;-68
2023/11/17 10:08:13;;;;;;;32.80;19.98;;;;;;;-2.29;100.00;102312.94;5038367;28;20037;-68
2023/11/17 10:10:42;;;;;;;32.20;19.48;;;;;;;-2.12;100.00;102304.63;5038782;28;20056;-71
2023/11/17 10:13:11;;;;;;;33.90;18.60;;;;;;;-2.03;100.00;102266.94;5039039;28;20039;-67
2023/11/17 10:15:45;;;;;;;37.55;23.63;;;;;;;-1.58;100.00;102309.97;5038243;28;20099;-67
2023/11/17 10:18:22;;;;;;;38.57;22.20;;;;;;;-1.79;100.00;102271.44;5036319;28;20061;-70
2023/11/17 10:20:48;;;;;;;45.30;21.60;;;;;;;-1.47;100.00;102324.44;5035934;28;20747;-70
2023/11/17 10:23:17;;;;;;;40.37;21.83;;;;;;;-1.56;100.00;102316.00;5036047;28;20299;-70
2023/11/17 10:25:43;;;;;;;;;;;;;;;-1.58;100.00;102317.81;5018931;28;20049;-70
2023/11/17 10:28:14;;;;;;;33.23;19.83;;;;;;;-1.66;100.00;102322.41;5037123;28;19920;-71
2023/11/17 10:30:41;;;;;;;34.57;20.77;;;;;;;-1.63;100.00;102321.47;5035564;28;20705;-69
2023/11/17 10:33:21;;;;;;;33.35;20.67;;;;;;;-1.72;100.00;102306.94;5037072;28;20335;-69
2023/11/17 10:36:01;;;;;;;46.47;23.80;;;;;;;-2.27;100.00;102230.25;5035836;28;20549;-68
2023/11/17 10:38:29;;;;;;;41.35;23.70;;;;;;;-1.84;100.00;102311.66;5035766;28;20056;-69
2023/11/17 10:41:14;;;;;;;36.50;22.58;;;;;;;-1.74;100.00;102321.78;5035544;28;20033;-70
2023/11/17 10:43:51;;;;;;;35.75;21.50;;;;;;;-1.75;100.00;102314.84;5035356;28;20037;-69
2023/11/17 10:46:31;;;;;;;35.53;22.98;;;;;;;-1.65;100.00;102320.66;5034431;28;20049;-67
2023/11/17 10:48:59;;;;;;;33.30;20.00;;;;;;;-1.73;100.00;102288.72;5035268;28;20436;-70
2023/11/17 10:51:26;;;;;;;31.63;20.35;;;;;;;-1.61;100.00;102311.81;5034758;28;20037;-72
2023/11/17 10:54:09;;;;;;;31.80;19.70;;;;;;;-1.54;100.00;102322.94;5017663;28;20053;-69
2023/11/17 10:56:36;;;;;;;35.00;20.57;;;;;;;-1.56;100.00;102305.56;5034081;28;20268;-66
2023/11/17 10:59:03;;;;;;;30.97;21.23;;;;;;;-1.51;100.00;102301.94;5033924;28;20644;-74
2023/11/17 11:01:31;;;;;;;34.20;20.07;;;;;;;-1.39;100.00;102317.25;5033849;28;20280;-69
2023/11/17 11:03:58;;;;;;;36.93;20.97;;;;;;;-1.62;100.00;102295.31;5034372;28;20276;-68
2023/11/17 11:06:28;;;;;;;34.83;19.93;;;;;;;-1.56;100.00;102309.94;5034100;28;20312;-70
2023/11/17 11:08:56;;;;;;;31.27;19.80;;;;;;;-1.84;100.00;102285.53;5033815;28;20291;-68
2023/11/17 11:11:26;;;;;;;39.40;21.17;;;;;;;-2.08;100.00;102268.84;5033049;28;20755;-66
2023/11/17 11:14:03;;;;;;;30.73;19.60;;;;;;;-1.99;100.00;102307.75;5034157;28;20763;-66
2023/11/17 11:16:32;;;;;;;33.90;19.57;;;;;;;-2.00;100.00;102329.53;5033025;28;20338;-71
2023/11/17 11:18:59;;;;;;;30.07;19.03;;;;;;;-2.47;100.00;102261.25;5038136;28;20450;-69